createdAt,value
2019-04-10T00:00:47.978Z,1.20
2019-04-10T00:03:27.964Z,1.70
2019-04-10T00:05:50.049Z,1.43
2019-04-10T00:08:20.286Z,1.53
2019-04-10T00:10:50.326Z,1.43
2019-04-10T00:13:20.581Z,1.37
2019-04-10T00:15:50.851Z,1.23
2019-04-10T00:18:22.052Z,1.00
2019-04-10T00:20:54.034Z,1.40
2019-04-10T00:23:24.820Z,1.30
2019-04-10T00:25:55.354Z,1.70
2019-04-10T00:28:25.531Z,1.70
2019-04-10T00:30:55.709Z,1.17
2019-04-10T00:33:25.682Z,1.27
2019-04-10T00:35:56.132Z,1.37
2019-04-10T00:38:27.540Z,1.10
2019-04-10T00:40:57.838Z,1.07
2019-04-10T00:43:28.237Z,1.13
2019-04-10T00:45:59.932Z,1.63
2019-04-10T00:48:30.272Z,1.97
2019-04-10T00:51:01.262Z,1.40
2019-04-10T00:53:32.868Z,1.40
2019-04-10T00:56:04.011Z,1.77
2019-04-10T00:58:34.068Z,1.50
2019-04-10T01:01:05.519Z,1.20
2019-04-10T01:03:42.632Z,1.50
2019-04-10T01:06:13.723Z,1.40
2019-04-10T01:08:44.729Z,1.17
2019-04-10T01:11:15.175Z,1.15
2019-04-10T01:13:47.408Z,1.50
2019-04-10T01:16:17.964Z,1.40
2019-04-10T01:18:48.466Z,1.07
2019-04-10T01:21:18.513Z,1.37
2019-04-10T01:23:49.081Z,1.90
2019-04-10T01:26:19.434Z,1.37
2019-04-10T01:28:49.522Z,1.67
2019-04-10T01:31:20.040Z,1.80
2019-04-10T01:33:50.646Z,1.10
2019-04-10T01:36:20.787Z,1.10
2019-04-10T01:38:51.728Z,1.50
2019-04-10T01:41:22.002Z,1.42
2019-04-10T01:43:52.065Z,1.73
2019-04-10T01:46:22.297Z,1.70
2019-04-10T01:48:53.275Z,1.60
2019-04-10T01:51:23.971Z,1.53
2019-04-10T01:53:54.460Z,1.73
2019-04-10T01:56:29.424Z,1.43
2019-04-10T01:58:57.275Z,1.70
2019-04-10T02:01:38.775Z,1.87
2019-04-10T02:04:08.958Z,1.53
2019-04-10T02:06:39.105Z,2.60
2019-04-10T02:09:10.925Z,1.40
2019-04-10T02:11:41.897Z,1.50
2019-04-10T02:14:12.146Z,1.57
2019-04-10T02:16:43.152Z,1.50
2019-04-10T02:19:14.294Z,1.70
2019-04-10T02:21:44.532Z,1.70
2019-04-10T02:24:16.694Z,1.87
2019-04-10T02:26:46.973Z,1.40
2019-04-10T02:29:17.649Z,1.87
2019-04-10T02:31:50.555Z,2.27
2019-04-10T02:34:21.268Z,1.40
2019-04-10T02:36:52.878Z,1.77
2019-04-10T02:39:31.479Z,2.03
2019-04-10T02:41:56.219Z,1.67
2019-04-10T02:44:28.343Z,1.40
2019-04-10T02:46:59.724Z,1.93
2019-04-10T02:49:30.088Z,1.70
2019-04-10T02:52:00.131Z,1.67
2019-04-10T02:54:30.169Z,2.00
2019-04-10T02:57:01.061Z,1.83
2019-04-10T02:59:31.292Z,1.63
2019-04-10T03:02:02.379Z,1.80
2019-04-10T03:04:35.172Z,1.50
2019-04-10T03:07:07.355Z,1.40
2019-04-10T03:09:54.415Z,1.70
2019-04-10T03:12:10.463Z,1.77
2019-04-10T03:14:42.936Z,1.20
2019-04-10T03:17:12.611Z,2.00
2019-04-10T03:19:43.466Z,1.40
2019-04-10T03:22:13.809Z,1.20
2019-04-10T03:24:44.399Z,1.50
2019-04-10T03:27:14.545Z,1.70
2019-04-10T03:29:45.014Z,1.57
2019-04-10T03:32:55.916Z,1.40
2019-04-10T03:35:25.654Z,1.63
2019-04-10T03:37:55.737Z,1.70
2019-04-10T03:40:27.067Z,1.70
2019-04-10T03:42:57.308Z,1.40
2019-04-10T03:45:27.369Z,1.80
2019-04-10T03:47:58.408Z,1.43
2019-04-10T03:50:28.410Z,1.63
2019-04-10T03:52:58.423Z,1.90
2019-04-10T03:55:29.236Z,1.63
2019-04-10T03:57:59.397Z,1.53
2019-04-10T04:00:29.981Z,1.40
2019-04-10T04:03:00.283Z,1.40
2019-04-10T04:05:30.852Z,1.47
2019-04-10T04:08:01.314Z,1.40
2019-04-10T04:10:31.634Z,1.90
2019-04-10T04:13:01.665Z,1.40
2019-04-10T04:15:31.844Z,1.60
2019-04-10T04:18:02.536Z,1.80
2019-04-10T04:20:33.687Z,1.47
2019-04-10T04:23:05.469Z,1.43
2019-04-10T04:25:36.553Z,1.43
2019-04-10T04:28:06.740Z,1.80
2019-04-10T04:30:36.867Z,1.40
2019-04-10T04:33:06.837Z,1.30
2019-04-10T04:35:36.840Z,1.63
2019-04-10T04:38:07.155Z,1.53
2019-04-10T04:40:37.781Z,1.53
2019-04-10T04:43:08.231Z,1.80
2019-04-10T04:45:38.615Z,1.83
2019-04-10T04:48:09.848Z,1.77
2019-04-10T04:50:41.631Z,1.67
2019-04-10T04:53:14.172Z,1.70
2019-04-10T04:55:44.976Z,2.00
2019-04-10T04:58:15.224Z,1.93
2019-04-10T05:00:45.931Z,1.53
2019-04-10T05:03:16.354Z,1.63
2019-04-10T05:05:46.526Z,1.83
2019-04-10T05:08:17.438Z,1.50
2019-04-10T05:10:47.675Z,2.13
2019-04-10T05:13:18.248Z,1.37
2019-04-10T05:15:49.240Z,2.07
2019-04-10T05:18:19.515Z,2.10
2019-04-10T05:20:50.825Z,1.70
2019-04-10T05:23:22.274Z,1.97
2019-04-10T05:25:52.625Z,1.90
2019-04-10T05:28:22.673Z,1.93
2019-04-10T05:30:56.855Z,1.60
2019-04-10T05:33:27.074Z,1.77
2019-04-10T05:35:57.073Z,1.73
2019-04-10T05:38:29.123Z,1.90
2019-04-10T05:40:59.416Z,1.90
2019-04-10T05:43:30.472Z,2.10
2019-04-10T05:46:01.249Z,2.07
2019-04-10T05:48:31.649Z,1.50
2019-04-10T05:51:04.816Z,2.50
2019-04-10T05:53:34.528Z,2.30
2019-04-10T05:56:05.617Z,1.77
2019-04-10T05:58:35.871Z,2.13
2019-04-10T06:01:07.544Z,1.87
2019-04-10T06:03:38.680Z,3.40
2019-04-10T06:06:10.945Z,2.67
2019-04-10T06:08:42.238Z,3.02
2019-04-10T06:11:13.558Z,2.43
2019-04-10T06:13:45.058Z,2.20
2019-04-10T06:16:15.431Z,2.00
2019-04-10T06:18:47.214Z,1.87
2019-04-10T06:21:17.176Z,2.07
2019-04-10T06:23:47.670Z,2.43
2019-04-10T06:26:17.737Z,1.60
2019-04-10T06:28:48.502Z,2.10
2019-04-10T06:31:19.109Z,1.70
2019-04-10T06:33:50.571Z,2.00
2019-04-10T06:36:21.551Z,1.60
2019-04-10T06:38:53.104Z,1.90
2019-04-10T06:41:24.857Z,1.77
2019-04-10T06:43:55.260Z,1.50
2019-04-10T06:46:25.543Z,1.70
2019-04-10T06:48:56.337Z,2.10
2019-04-10T06:51:27.260Z,1.87
2019-04-10T06:54:05.064Z,1.77
2019-04-10T06:56:31.713Z,1.90
2019-04-10T06:59:02.529Z,1.80
2019-04-10T07:01:40.494Z,1.90
2019-04-10T07:04:07.996Z,1.97
2019-04-10T07:06:50.525Z,1.83
2019-04-10T07:09:15.799Z,2.23
2019-04-10T07:11:53.438Z,2.17
2019-04-10T07:14:20.994Z,1.87
2019-04-10T07:16:51.221Z,2.10
2019-04-10T07:19:21.307Z,2.20
2019-04-10T07:21:51.368Z,2.00
2019-04-10T07:24:21.371Z,2.50
2019-04-10T07:26:53.300Z,2.63
2019-04-10T07:29:26.735Z,3.20
2019-04-10T07:31:55.471Z,2.80
2019-04-10T07:34:28.514Z,3.07
2019-04-10T07:36:58.139Z,3.17
2019-04-10T07:39:31.790Z,2.30
2019-04-10T07:42:00.150Z,3.17
2019-04-10T07:44:30.439Z,2.80
2019-04-10T07:47:00.883Z,2.90
2019-04-10T07:49:32.983Z,3.70
2019-04-10T07:52:03.756Z,3.53
2019-04-10T07:54:35.168Z,3.17
2019-04-10T07:57:06.305Z,3.50
2019-04-10T07:59:37.587Z,3.20
2019-04-10T08:02:08.840Z,3.77
2019-04-10T08:04:40.534Z,3.60
2019-04-10T08:07:11.650Z,3.90
2019-04-10T08:09:43.081Z,3.30
2019-04-10T08:12:13.950Z,3.03
2019-04-10T08:14:44.243Z,2.90
2019-04-10T08:17:16.284Z,3.43
2019-04-10T08:19:46.758Z,3.43
2019-04-10T08:22:17.884Z,4.00
2019-04-10T08:24:49.158Z,3.37
2019-04-10T08:27:19.413Z,2.40
2019-04-10T08:29:50.566Z,2.73
2019-04-10T08:32:21.603Z,3.00
2019-04-10T08:34:52.622Z,3.40
2019-04-10T08:37:24.136Z,3.00
2019-04-10T08:39:54.772Z,3.33
2019-04-10T08:42:24.805Z,2.97
2019-04-10T08:44:54.924Z,3.30
2019-04-10T08:47:25.037Z,2.83
2019-04-10T08:49:55.107Z,3.13
2019-04-10T08:52:25.271Z,3.27
2019-04-10T08:54:55.346Z,2.83
2019-04-10T08:57:25.719Z,2.90
2019-04-10T08:59:56.274Z,2.60
2019-04-10T09:02:26.558Z,2.43
2019-04-10T09:04:57.359Z,2.13
2019-04-10T09:07:28.381Z,2.53
2019-04-10T09:09:58.678Z,2.43
2019-04-10T09:12:29.576Z,2.70
2019-04-10T09:14:59.694Z,2.50
2019-04-10T09:17:30.050Z,2.53
2019-04-10T09:20:02.565Z,2.33
2019-04-10T09:22:49.809Z,2.63
2019-04-10T09:25:05.221Z,2.90
2019-04-10T09:27:35.927Z,2.90
2019-04-10T09:30:06.735Z,2.47
2019-04-10T09:32:38.983Z,3.23
2019-04-10T09:35:09.316Z,2.57
2019-04-10T09:37:39.882Z,2.60
2019-04-10T09:40:10.406Z,3.45
2019-04-10T09:42:41.772Z,2.80
2019-04-10T09:45:13.439Z,2.43
2019-04-10T09:47:43.858Z,2.20
2019-04-10T09:50:15.022Z,2.80
2019-04-10T09:52:46.217Z,2.47
2019-04-10T09:55:16.386Z,2.37
2019-04-10T09:57:47.542Z,2.40
2019-04-10T10:00:19.114Z,2.47
2019-04-10T10:02:49.386Z,2.27
2019-04-10T10:05:20.254Z,2.03
2019-04-10T10:07:56.076Z,2.70
2019-04-10T10:10:25.896Z,2.73
2019-04-10T10:12:56.878Z,2.67
2019-04-10T10:15:27.425Z,2.40
2019-04-10T10:17:57.556Z,2.17
2019-04-10T10:20:27.918Z,2.33
2019-04-10T10:22:59.200Z,2.57
2019-04-10T10:25:29.250Z,2.53
2019-04-10T10:28:01.305Z,2.53
2019-04-10T10:30:33.683Z,3.00
2019-04-10T10:33:05.554Z,3.17
2019-04-10T10:35:35.995Z,2.70
2019-04-10T10:38:07.274Z,2.30
2019-04-10T10:40:37.724Z,2.90
2019-04-10T10:43:07.901Z,2.30
2019-04-10T10:45:38.980Z,2.47
2019-04-10T10:48:10.140Z,2.70
2019-04-10T10:50:40.143Z,2.70
2019-04-10T10:53:10.286Z,2.67
2019-04-10T10:55:40.344Z,2.10
2019-04-10T10:58:11.340Z,2.70
2019-04-10T11:00:41.669Z,2.90
2019-04-10T11:03:11.607Z,2.60
2019-04-10T11:05:42.312Z,1.93
2019-04-10T11:08:13.077Z,2.10
2019-04-10T11:10:47.460Z,2.07
2019-04-10T11:13:15.056Z,2.73
2019-04-10T11:15:46.005Z,2.40
2019-04-10T11:18:18.135Z,2.50
2019-04-10T11:20:48.436Z,1.97
2019-04-10T11:23:19.633Z,2.30
2019-04-10T11:25:50.352Z,2.10
2019-04-10T11:28:20.712Z,1.90
2019-04-10T11:30:50.889Z,2.50
2019-04-10T11:33:22.260Z,2.65
2019-04-10T11:35:53.445Z,2.10
2019-04-10T11:38:25.675Z,2.67
2019-04-10T11:40:58.186Z,2.30
2019-04-10T11:43:30.203Z,2.30
2019-04-10T11:46:02.557Z,2.40
2019-04-10T11:48:36.653Z,2.60
2019-04-10T11:51:11.922Z,1.90
2019-04-10T11:53:44.489Z,2.97
2019-04-10T11:56:11.734Z,2.50
2019-04-10T11:58:50.597Z,2.40
2019-04-10T12:01:13.793Z,3.20
2019-04-10T12:03:48.251Z,2.83
2019-04-10T12:06:20.758Z,2.40
2019-04-10T12:09:13.180Z,2.67
2019-04-10T12:11:21.753Z,2.73
2019-04-10T12:13:52.170Z,2.20
2019-04-10T12:16:23.389Z,3.27
2019-04-10T12:18:53.509Z,3.40
2019-04-10T12:21:24.057Z,3.40
2019-04-10T12:23:54.069Z,2.52
2019-04-10T12:26:24.045Z,3.07
2019-04-10T12:28:54.062Z,1.80
2019-04-10T12:31:24.106Z,2.70
2019-04-10T12:33:54.865Z,2.73
2019-04-10T12:36:24.980Z,2.93
2019-04-10T12:38:56.110Z,2.60
2019-04-10T12:41:26.345Z,3.20
2019-04-10T12:43:56.988Z,2.83
2019-04-10T12:46:27.013Z,2.47
2019-04-10T12:48:57.057Z,3.27
2019-04-10T12:51:27.745Z,2.13
2019-04-10T12:53:58.330Z,3.30
2019-04-10T12:56:30.368Z,3.30
2019-04-10T12:59:01.360Z,2.50
2019-04-10T13:01:31.622Z,2.33
2019-04-10T13:04:01.573Z,2.70
2019-04-10T13:06:31.744Z,2.83
2019-04-10T13:09:07.794Z,2.57
2019-04-10T13:11:35.036Z,2.50
2019-04-10T13:14:05.057Z,2.57
2019-04-10T13:16:36.170Z,2.37
2019-04-10T13:19:06.995Z,2.30
2019-04-10T13:21:37.202Z,2.30
2019-04-10T13:24:07.263Z,2.50
2019-04-10T13:26:37.770Z,2.10
2019-04-10T13:29:07.928Z,1.70
2019-04-10T13:31:38.061Z,1.90
2019-04-10T13:34:09.023Z,1.90
2019-04-10T13:36:39.836Z,2.17
2019-04-10T13:39:12.891Z,2.30
2019-04-10T13:41:43.526Z,1.80
2019-04-10T13:44:14.140Z,1.57
2019-04-10T13:46:44.893Z,1.73
2019-04-10T13:49:15.078Z,1.87
2019-04-10T13:51:45.660Z,1.70
2019-04-10T13:54:16.534Z,1.90
2019-04-10T13:56:47.942Z,1.60
2019-04-10T13:59:18.493Z,1.60
2019-04-10T14:01:48.668Z,1.40
2019-04-10T14:04:18.814Z,1.70
2019-04-10T14:06:49.370Z,1.93
2019-04-10T14:09:34.839Z,1.53
2019-04-10T14:11:53.854Z,1.70
2019-04-10T14:14:24.551Z,1.67
2019-04-10T14:16:55.107Z,2.00
2019-04-10T14:19:26.120Z,1.70
2019-04-10T14:21:56.188Z,1.53
2019-04-10T14:24:39.118Z,1.70
2019-04-10T14:27:16.070Z,1.30
2019-04-10T14:29:47.338Z,1.37
2019-04-10T14:32:29.211Z,1.40
2019-04-10T14:34:59.632Z,2.10
2019-04-10T14:37:29.691Z,1.70
2019-04-10T14:40:00.354Z,1.70
2019-04-10T14:42:32.659Z,1.57
2019-04-10T14:45:05.643Z,1.67
2019-04-10T14:47:36.838Z,1.60
2019-04-10T14:50:07.525Z,1.50
2019-04-10T14:52:38.002Z,1.40
2019-04-10T14:55:08.246Z,1.80
2019-04-10T14:57:39.083Z,1.90
2019-04-10T15:00:14.680Z,1.40
2019-04-10T15:02:44.831Z,2.03
2019-04-10T15:05:15.501Z,1.50
2019-04-10T15:07:45.614Z,2.20
2019-04-10T15:10:15.638Z,2.63
2019-04-10T15:12:45.833Z,1.43
2019-04-10T15:15:16.378Z,1.50
2019-04-10T15:17:47.704Z,1.70
2019-04-10T15:20:18.651Z,1.17
2019-04-10T15:22:49.769Z,1.17
2019-04-10T15:25:19.818Z,1.43
2019-04-10T15:27:49.836Z,1.50
2019-04-10T15:30:20.966Z,1.60
2019-04-10T15:32:50.923Z,1.60
2019-04-10T15:35:21.151Z,1.70
2019-04-10T15:37:51.607Z,1.43
2019-04-10T15:40:25.585Z,1.43
2019-04-10T15:42:54.558Z,1.63
2019-04-10T15:45:25.926Z,2.10
2019-04-10T15:47:58.673Z,2.70
2019-04-10T15:50:28.398Z,2.20
2019-04-10T15:52:59.851Z,2.10
2019-04-10T15:55:30.507Z,1.93
2019-04-10T15:58:02.302Z,1.97
2019-04-10T16:00:33.013Z,1.80
2019-04-10T16:03:04.991Z,1.63
2019-04-10T16:05:36.348Z,2.00
2019-04-10T16:08:07.839Z,2.37
2019-04-10T16:10:49.651Z,1.60
2019-04-10T16:13:36.765Z,1.87
2019-04-10T16:16:25.530Z,2.00
2019-04-10T16:19:04.396Z,1.97
2019-04-10T16:21:36.033Z,2.17
2019-04-10T16:24:09.083Z,1.50
2019-04-10T16:26:39.212Z,1.63
2019-04-10T16:29:09.606Z,1.60
2019-04-10T16:31:39.749Z,1.57
2019-04-10T16:34:09.765Z,1.47
2019-04-10T16:36:39.811Z,2.03
2019-04-10T16:39:13.764Z,2.00
2019-04-10T16:41:46.199Z,2.20
2019-04-10T16:44:17.188Z,1.63
2019-04-10T16:46:49.391Z,1.93
2019-04-10T16:49:20.137Z,2.00
2019-04-10T16:51:50.499Z,1.90
2019-04-10T16:54:21.606Z,1.60
2019-04-10T16:56:52.351Z,1.60
2019-04-10T16:59:23.507Z,2.10
2019-04-10T17:01:53.750Z,1.87
2019-04-10T17:04:23.778Z,1.70
2019-04-10T17:06:54.619Z,1.60
2019-04-10T17:09:26.905Z,1.60
2019-04-10T17:11:58.620Z,2.00
2019-04-10T17:14:29.358Z,1.70
2019-04-10T17:16:59.626Z,2.10
2019-04-10T17:19:30.790Z,1.53
2019-04-10T17:22:01.150Z,2.57
2019-04-10T17:24:31.406Z,1.80
2019-04-10T17:27:01.618Z,1.97
2019-04-10T17:29:31.773Z,2.10
2019-04-10T17:32:02.637Z,1.67
2019-04-10T17:34:32.900Z,1.83
2019-04-10T17:37:03.164Z,2.23
2019-04-10T17:39:33.513Z,1.77
2019-04-10T17:42:04.526Z,2.27
2019-04-10T17:44:34.554Z,2.30
2019-04-10T17:47:08.016Z,1.87
2019-04-10T17:49:36.732Z,2.00
2019-04-10T17:52:08.214Z,2.00
2019-04-10T17:54:38.736Z,1.70
2019-04-10T17:57:08.954Z,1.97
2019-04-10T17:59:40.669Z,1.93
2019-04-10T18:02:13.758Z,1.63
2019-04-10T18:04:44.190Z,2.53
2019-04-10T18:07:14.436Z,2.30
2019-04-10T18:09:44.506Z,1.70
2019-04-10T18:12:16.239Z,2.03
2019-04-10T18:14:47.201Z,1.97
2019-04-10T18:17:18.479Z,1.67
2019-04-10T18:19:48.563Z,2.10
2019-04-10T18:22:18.616Z,2.00
2019-04-10T18:24:49.518Z,1.87
2019-04-10T18:27:20.457Z,2.20
2019-04-10T18:29:51.705Z,2.10
2019-04-10T18:32:21.908Z,2.60
2019-04-10T18:34:52.147Z,2.07
2019-04-10T18:37:25.725Z,2.10
2019-04-10T18:39:56.926Z,2.27
2019-04-10T18:42:27.090Z,2.03
2019-04-10T18:44:57.512Z,1.90
2019-04-10T18:47:27.636Z,2.57
2019-04-10T18:49:58.006Z,2.53
2019-04-10T18:52:29.523Z,2.90
2019-04-10T18:55:00.450Z,2.53
2019-04-10T18:57:33.673Z,1.70
2019-04-10T19:00:21.814Z,2.07
2019-04-10T19:03:17.735Z,2.03
2019-04-10T19:05:52.161Z,2.70
2019-04-10T19:08:22.224Z,2.40
2019-04-10T19:11:06.851Z,2.73
2019-04-10T19:13:26.696Z,2.53
2019-04-10T19:15:57.279Z,2.10
2019-04-10T19:18:28.117Z,2.40
2019-04-10T19:20:59.045Z,2.07
2019-04-10T19:23:30.830Z,1.97
2019-04-10T19:26:01.056Z,2.60
2019-04-10T19:28:35.071Z,2.67
2019-04-10T19:31:11.114Z,2.13
2019-04-10T19:33:39.487Z,2.43
2019-04-10T19:36:11.968Z,2.80
2019-04-10T19:38:43.864Z,2.70
2019-04-10T19:41:25.064Z,2.77
2019-04-10T19:43:46.378Z,2.53
2019-04-10T19:46:17.503Z,1.93
2019-04-10T19:48:50.176Z,2.47
2019-04-10T19:51:21.720Z,2.23
2019-04-10T19:53:53.394Z,2.50
2019-04-10T19:56:24.456Z,2.20
2019-04-10T19:58:55.112Z,2.47
2019-04-10T20:01:28.572Z,2.30
2019-04-10T20:03:56.920Z,2.30
2019-04-10T20:06:28.021Z,2.90
2019-04-10T20:09:00.079Z,2.60
2019-04-10T20:11:37.602Z,2.53
2019-04-10T20:14:04.182Z,2.20
2019-04-10T20:16:35.309Z,2.97
2019-04-10T20:19:05.883Z,2.63
2019-04-10T20:21:37.144Z,2.93
2019-04-10T20:24:08.197Z,2.90
2019-04-10T20:26:39.121Z,2.03
2019-04-10T20:29:09.515Z,2.23
2019-04-10T20:31:39.689Z,2.80
2019-04-10T20:34:11.539Z,2.30
2019-04-10T20:36:42.997Z,2.60
2019-04-10T20:39:14.793Z,2.03
2019-04-10T20:41:52.327Z,2.50
2019-04-10T20:44:18.812Z,2.47
2019-04-10T20:46:48.848Z,2.50
2019-04-10T20:49:18.920Z,2.07
2019-04-10T20:51:50.212Z,3.00
2019-04-10T20:54:20.516Z,2.57
2019-04-10T20:56:51.410Z,2.60
2019-04-10T20:59:21.377Z,2.47
2019-04-10T21:01:51.546Z,2.27
2019-04-10T21:04:21.605Z,3.07
2019-04-10T21:06:51.587Z,2.70
2019-04-10T21:09:21.646Z,2.90
2019-04-10T21:12:03.000Z,2.60
2019-04-10T21:14:23.437Z,2.30
2019-04-10T21:16:53.452Z,2.60
2019-04-10T21:19:23.476Z,2.50
2019-04-10T21:21:53.480Z,2.63
2019-04-10T21:24:23.487Z,2.20
2019-04-10T21:26:53.532Z,2.63
2019-04-10T21:29:42.234Z,2.63
2019-04-10T21:32:21.705Z,2.70
2019-04-10T21:34:51.968Z,2.53
2019-04-10T21:37:22.245Z,2.47
2019-04-10T21:39:54.176Z,2.57
2019-04-10T21:42:25.769Z,2.40
2019-04-10T21:44:55.975Z,2.70
2019-04-10T21:47:25.963Z,2.43
2019-04-10T21:49:57.749Z,2.63
2019-04-10T21:52:27.753Z,2.50
2019-04-10T21:55:00.283Z,2.27
2019-04-10T21:57:30.012Z,2.13
2019-04-10T22:00:00.062Z,2.80
2019-04-10T22:02:32.014Z,2.73
2019-04-10T22:05:03.802Z,2.40
2019-04-10T22:07:58.851Z,2.50
2019-04-10T22:10:45.829Z,2.40
2019-04-10T22:13:15.927Z,2.60
2019-04-10T22:15:47.106Z,2.20
2019-04-10T22:18:17.171Z,2.13
2019-04-10T22:20:48.013Z,2.30
2019-04-10T22:23:18.205Z,2.77
2019-04-10T22:25:48.265Z,2.57
2019-04-10T22:28:19.357Z,2.47
2019-04-10T22:30:50.589Z,2.40
2019-04-10T22:33:22.289Z,2.50
2019-04-10T22:35:52.592Z,2.90
2019-04-10T22:38:22.691Z,2.47
2019-04-10T22:40:53.658Z,2.17
2019-04-10T22:43:24.448Z,2.50
2019-04-10T22:45:54.944Z,2.90
2019-04-10T22:48:25.175Z,2.47
2019-04-10T22:50:55.805Z,2.57
2019-04-10T22:53:25.943Z,2.70
2019-04-10T22:55:56.877Z,2.73
2019-04-10T22:58:26.961Z,2.97
2019-04-10T23:00:57.973Z,3.20
2019-04-10T23:03:28.236Z,2.70
2019-04-10T23:05:58.613Z,2.70
2019-04-10T23:08:28.970Z,2.47
2019-04-10T23:10:59.506Z,2.70
2019-04-10T23:13:32.067Z,2.77
2019-04-10T23:16:01.995Z,2.90
2019-04-10T23:18:32.064Z,2.37
2019-04-10T23:21:02.043Z,2.80
2019-04-10T23:23:32.793Z,2.60
2019-04-10T23:26:02.893Z,2.50
2019-04-10T23:28:33.742Z,2.33
2019-04-10T23:31:04.256Z,3.27
2019-04-10T23:33:34.529Z,2.73
2019-04-10T23:36:05.615Z,2.40
2019-04-10T23:38:37.495Z,2.50
2019-04-10T23:41:07.605Z,2.93
2019-04-10T23:43:37.835Z,2.60
2019-04-10T23:46:08.373Z,2.63
2019-04-10T23:48:39.165Z,2.77
2019-04-10T23:51:10.504Z,2.23
2019-04-10T23:53:40.686Z,2.20
2019-04-10T23:56:11.448Z,2.37
2019-04-10T23:58:42.341Z,2.60
